sensor_id;sensor_type;location;lat;lon;timestamp;temperature;humidity
11615;DHT22;5863;52.832;4.758;2023-05-06T00:01:41;12.10;99.90
11615;DHT22;5863;52.832;4.758;2023-05-06T00:04:08;12.00;99.90
11615;DHT22;5863;52.832;4.758;2023-05-06T00:06:35;12.00;99.90
11615;DHT22;5863;52.832;4.758;2023-05-06T00:09:02;12.00;99.90
11615;DHT22;5863;52.832;4.758;2023-05-06T00:11:29;12.00;99.90
11615;DHT22;5863;52.832;4.758;2023-05-06T00:13:55;12.00;99.90
11615;DHT22;5863;52.832;4.758;2023-05-06T00:16:23;12.00;99.90
11615;DHT22;5863;52.832;4.758;2023-05-06T00:18:50;11.90;99.90
11615;DHT22;5863;52.832;4.758;2023-05-06T00:21:17;11.90;99.90
11615;DHT22;5863;52.832;4.758;2023-05-06T00:23:44;12.10;99.90
11615;DHT22;5863;52.832;4.758;2023-05-06T00:26:10;12.00;99.90
11615;DHT22;5863;52.832;4.758;2023-05-06T00:28:37;12.00;99.90
11615;DHT22;5863;52.832;4.758;2023-05-06T00:31:04;12.00;99.90
11615;DHT22;5863;52.832;4.758;2023-05-06T00:33:32;12.00;99.90
11615;DHT22;5863;52.832;4.758;2023-05-06T00:35:58;12.00;99.90
11615;DHT22;5863;52.832;4.758;2023-05-06T00:38:25;11.90;99.90
11615;DHT22;5863;52.832;4.758;2023-05-06T00:40:52;11.90;99.90
11615;DHT22;5863;52.832;4.758;2023-05-06T00:43:18;12.00;99.90
11615;DHT22;5863;52.832;4.758;2023-05-06T00:45:45;11.90;99.90
11615;DHT22;5863;52.832;4.758;2023-05-06T00:48:13;12.00;99.90
11615;DHT22;5863;52.832;4.758;2023-05-06T00:50:43;12.00;99.90
11615;DHT22;5863;52.832;4.758;2023-05-06T00:53:11;12.00;99.90
11615;DHT22;5863;52.832;4.758;2023-05-06T00:55:38;12.00;99.90
11615;DHT22;5863;52.832;4.758;2023-05-06T00:58:06;12.00;99.90
11615;DHT22;5863;52.832;4.758;2023-05-06T01:00:32;12.10;99.90
11615;DHT22;5863;52.832;4.758;2023-05-06T01:02:59;12.00;99.90
11615;DHT22;5863;52.832;4.758;2023-05-06T01:05:30;12.00;99.90
11615;DHT22;5863;52.832;4.758;2023-05-06T01:08:05;12.00;99.90
11615;DHT22;5863;52.832;4.758;2023-05-06T01:10:35;12.00;99.90
11615;DHT22;5863;52.832;4.758;2023-05-06T01:13:07;12.00;99.90
11615;DHT22;5863;52.832;4.758;2023-05-06T01:15:37;12.00;99.90
11615;DHT22;5863;52.832;4.758;2023-05-06T01:18:10;11.90;99.90
11615;DHT22;5863;52.832;4.758;2023-05-06T01:20:38;11.90;99.90
11615;DHT22;5863;52.832;4.758;2023-05-06T01:23:10;11.90;99.90
11615;DHT22;5863;52.832;4.758;2023-05-06T01:25:37;11.90;99.90
11615;DHT22;5863;52.832;4.758;2023-05-06T01:28:04;11.80;99.90
11615;DHT22;5863;52.832;4.758;2023-05-06T01:30:39;11.80;99.90
11615;DHT22;5863;52.832;4.758;2023-05-06T01:33:12;11.80;99.90
11615;DHT22;5863;52.832;4.758;2023-05-06T01:35:48;11.80;99.90
11615;DHT22;5863;52.832;4.758;2023-05-06T01:38:21;11.80;99.90
11615;DHT22;5863;52.832;4.758;2023-05-06T01:40:54;11.80;99.90
11615;DHT22;5863;52.832;4.758;2023-05-06T01:43:22;11.80;99.90
11615;DHT22;5863;52.832;4.758;2023-05-06T01:45:53;11.70;99.90
11615;DHT22;5863;52.832;4.758;2023-05-06T01:48:21;11.70;99.90
11615;DHT22;5863;52.832;4.758;2023-05-06T01:50:48;11.70;99.90
11615;DHT22;5863;52.832;4.758;2023-05-06T01:53:15;11.70;99.90
11615;DHT22;5863;52.832;4.758;2023-05-06T01:55:43;11.60;99.90
11615;DHT22;5863;52.832;4.758;2023-05-06T01:58:10;11.50;99.90
11615;DHT22;5863;52.832;4.758;2023-05-06T02:00:37;11.50;99.90
11615;DHT22;5863;52.832;4.758;2023-05-06T02:03:03;11.50;99.90
11615;DHT22;5863;52.832;4.758;2023-05-06T02:05:30;11.50;99.90
11615;DHT22;5863;52.832;4.758;2023-05-06T02:07:56;11.50;99.90
11615;DHT22;5863;52.832;4.758;2023-05-06T02:10:23;11.50;99.90
11615;DHT22;5863;52.832;4.758;2023-05-06T02:12:51;11.50;99.90
11615;DHT22;5863;52.832;4.758;2023-05-06T02:15:18;11.40;99.90
11615;DHT22;5863;52.832;4.758;2023-05-06T02:17:45;11.40;99.90
11615;DHT22;5863;52.832;4.758;2023-05-06T02:20:11;11.40;99.90
11615;DHT22;5863;52.832;4.758;2023-05-06T02:22:38;11.50;99.90
11615;DHT22;5863;52.832;4.758;2023-05-06T02:25:06;11.50;99.90
11615;DHT22;5863;52.832;4.758;2023-05-06T02:27:33;11.40;99.90
11615;DHT22;5863;52.832;4.758;2023-05-06T02:30:01;11.40;99.90
11615;DHT22;5863;52.832;4.758;2023-05-06T02:32:28;11.50;99.90
11615;DHT22;5863;52.832;4.758;2023-05-06T02:34:54;11.50;99.90
11615;DHT22;5863;52.832;4.758;2023-05-06T02:37:21;11.40;99.90
11615;DHT22;5863;52.832;4.758;2023-05-06T02:39:48;11.40;99.90
11615;DHT22;5863;52.832;4.758;2023-05-06T02:42:15;11.40;99.90
11615;DHT22;5863;52.832;4.758;2023-05-06T02:44:41;11.30;99.90
11615;DHT22;5863;52.832;4.758;2023-05-06T02:47:09;11.40;99.90
11615;DHT22;5863;52.832;4.758;2023-05-06T02:49:36;11.40;99.90
11615;DHT22;5863;52.832;4.758;2023-05-06T02:52:03;11.40;99.90
11615;DHT22;5863;52.832;4.758;2023-05-06T02:54:30;11.40;99.90
11615;DHT22;5863;52.832;4.758;2023-05-06T02:56:56;11.40;99.90
11615;DHT22;5863;52.832;4.758;2023-05-06T02:59:23;11.30;99.90
11615;DHT22;5863;52.832;4.758;2023-05-06T03:01:50;11.20;99.90
11615;DHT22;5863;52.832;4.758;2023-05-06T03:04:18;11.10;99.90
11615;DHT22;5863;52.832;4.758;2023-05-06T03:06:45;11.00;99.90
11615;DHT22;5863;52.832;4.758;2023-05-06T03:09:12;11.00;99.90
11615;DHT22;5863;52.832;4.758;2023-05-06T03:11:39;10.80;99.90
11615;DHT22;5863;52.832;4.758;2023-05-06T03:14:06;10.90;99.90
11615;DHT22;5863;52.832;4.758;2023-05-06T03:16:33;11.00;99.90
11615;DHT22;5863;52.832;4.758;2023-05-06T03:18:59;11.00;99.90
11615;DHT22;5863;52.832;4.758;2023-05-06T03:21:29;11.00;99.90
11615;DHT22;5863;52.832;4.758;2023-05-06T03:23:56;10.90;99.90
11615;DHT22;5863;52.832;4.758;2023-05-06T03:26:22;10.90;99.90
11615;DHT22;5863;52.832;4.758;2023-05-06T03:28:49;10.90;99.90
11615;DHT22;5863;52.832;4.758;2023-05-06T03:31:16;11.00;99.90
11615;DHT22;5863;52.832;4.758;2023-05-06T03:33:43;10.90;99.90
11615;DHT22;5863;52.832;4.758;2023-05-06T03:36:09;10.90;99.90
11615;DHT22;5863;52.832;4.758;2023-05-06T03:38:38;10.80;99.90
11615;DHT22;5863;52.832;4.758;2023-05-06T03:41:05;10.80;99.90
11615;DHT22;5863;52.832;4.758;2023-05-06T03:43:32;10.80;99.90
11615;DHT22;5863;52.832;4.758;2023-05-06T03:45:58;10.80;99.90
11615;DHT22;5863;52.832;4.758;2023-05-06T03:48:25;10.80;99.90
11615;DHT22;5863;52.832;4.758;2023-05-06T03:50:52;10.70;99.90
11615;DHT22;5863;52.832;4.758;2023-05-06T03:53:18;10.70;99.90
11615;DHT22;5863;52.832;4.758;2023-05-06T03:55:46;10.70;99.90
11615;DHT22;5863;52.832;4.758;2023-05-06T03:58:13;10.70;99.90
11615;DHT22;5863;52.832;4.758;2023-05-06T04:00:40;10.70;99.90
11615;DHT22;5863;52.832;4.758;2023-05-06T04:03:06;10.80;99.90
11615;DHT22;5863;52.832;4.758;2023-05-06T04:05:33;10.70;99.90
11615;DHT22;5863;52.832;4.758;2023-05-06T04:08:00;10.70;99.90
11615;DHT22;5863;52.832;4.758;2023-05-06T04:10:27;10.70;99.90
11615;DHT22;5863;52.832;4.758;2023-05-06T04:12:55;10.70;99.90
11615;DHT22;5863;52.832;4.758;2023-05-06T04:15:22;10.70;99.90
11615;DHT22;5863;52.832;4.758;2023-05-06T04:17:50;10.80;99.90
11615;DHT22;5863;52.832;4.758;2023-05-06T04:20:17;10.50;99.90
11615;DHT22;5863;52.832;4.758;2023-05-06T04:22:44;10.50;99.90
11615;DHT22;5863;52.832;4.758;2023-05-06T04:25:11;10.40;99.90
11615;DHT22;5863;52.832;4.758;2023-05-06T04:27:38;10.40;99.90
11615;DHT22;5863;52.832;4.758;2023-05-06T04:30:07;10.40;99.90
11615;DHT22;5863;52.832;4.758;2023-05-06T04:32:34;10.40;99.90
11615;DHT22;5863;52.832;4.758;2023-05-06T04:35:03;10.40;99.90
11615;DHT22;5863;52.832;4.758;2023-05-06T04:37:30;10.50;99.90
11615;DHT22;5863;52.832;4.758;2023-05-06T04:39:56;10.50;99.90
11615;DHT22;5863;52.832;4.758;2023-05-06T04:42:23;10.60;99.90
11615;DHT22;5863;52.832;4.758;2023-05-06T04:44:50;10.60;99.90
11615;DHT22;5863;52.832;4.758;2023-05-06T04:47:18;10.70;99.90
11615;DHT22;5863;52.832;4.758;2023-05-06T04:49:45;10.70;99.90
11615;DHT22;5863;52.832;4.758;2023-05-06T04:52:11;10.90;99.90
11615;DHT22;5863;52.832;4.758;2023-05-06T04:54:38;10.80;99.90
11615;DHT22;5863;52.832;4.758;2023-05-06T04:57:05;10.90;99.90
11615;DHT22;5863;52.832;4.758;2023-05-06T04:59:31;11.00;99.90
11615;DHT22;5863;52.832;4.758;2023-05-06T05:01:58;11.10;99.90
11615;DHT22;5863;52.832;4.758;2023-05-06T05:04:26;11.20;99.90
11615;DHT22;5863;52.832;4.758;2023-05-06T05:06:53;11.30;99.90
11615;DHT22;5863;52.832;4.758;2023-05-06T05:09:20;11.40;99.90
11615;DHT22;5863;52.832;4.758;2023-05-06T05:11:47;11.60;99.90
11615;DHT22;5863;52.832;4.758;2023-05-06T05:14:13;11.80;99.90
11615;DHT22;5863;52.832;4.758;2023-05-06T05:16:40;11.90;99.90
11615;DHT22;5863;52.832;4.758;2023-05-06T05:19:07;12.10;99.90
11615;DHT22;5863;52.832;4.758;2023-05-06T05:21:35;12.30;99.90
11615;DHT22;5863;52.832;4.758;2023-05-06T05:24:02;12.50;99.90
11615;DHT22;5863;52.832;4.758;2023-05-06T05:26:29;12.70;99.90
11615;DHT22;5863;52.832;4.758;2023-05-06T05:28:56;13.00;99.90
11615;DHT22;5863;52.832;4.758;2023-05-06T05:31:22;13.20;99.90
11615;DHT22;5863;52.832;4.758;2023-05-06T05:33:49;13.50;99.90
11615;DHT22;5863;52.832;4.758;2023-05-06T05:36:16;13.90;99.90
11615;DHT22;5863;52.832;4.758;2023-05-06T05:38:44;14.40;99.90
11615;DHT22;5863;52.832;4.758;2023-05-06T05:41:12;14.80;99.90
11615;DHT22;5863;52.832;4.758;2023-05-06T05:43:38;15.20;99.90
11615;DHT22;5863;52.832;4.758;2023-05-06T05:46:05;15.60;99.90
11615;DHT22;5863;52.832;4.758;2023-05-06T05:48:35;16.10;99.90
11615;DHT22;5863;52.832;4.758;2023-05-06T05:51:04;16.60;99.90
11615;DHT22;5863;52.832;4.758;2023-05-06T05:53:31;17.10;99.90
11615;DHT22;5863;52.832;4.758;2023-05-06T05:55:59;17.60;99.90
11615;DHT22;5863;52.832;4.758;2023-05-06T05:58:25;18.10;99.90
11615;DHT22;5863;52.832;4.758;2023-05-06T06:00:52;18.70;99.90
11615;DHT22;5863;52.832;4.758;2023-05-06T06:03:19;18.90;99.90
11615;DHT22;5863;52.832;4.758;2023-05-06T06:05:46;19.20;99.90
11615;DHT22;5863;52.832;4.758;2023-05-06T06:08:16;19.50;99.90
11615;DHT22;5863;52.832;4.758;2023-05-06T06:10:43;19.90;99.90
11615;DHT22;5863;52.832;4.758;2023-05-06T06:13:11;20.10;99.90
11615;DHT22;5863;52.832;4.758;2023-05-06T06:15:39;20.40;99.90
11615;DHT22;5863;52.832;4.758;2023-05-06T06:18:05;20.80;99.90
11615;DHT22;5863;52.832;4.758;2023-05-06T06:20:33;21.20;99.90
11615;DHT22;5863;52.832;4.758;2023-05-06T06:23:00;21.60;99.90
11615;DHT22;5863;52.832;4.758;2023-05-06T06:25:26;22.10;99.90
11615;DHT22;5863;52.832;4.758;2023-05-06T06:27:53;22.20;99.90
11615;DHT22;5863;52.832;4.758;2023-05-06T06:30:22;22.40;99.90
11615;DHT22;5863;52.832;4.758;2023-05-06T06:32:51;22.70;99.90
11615;DHT22;5863;52.832;4.758;2023-05-06T06:35:18;22.80;99.90
11615;DHT22;5863;52.832;4.758;2023-05-06T06:37:45;23.00;99.90
11615;DHT22;5863;52.832;4.758;2023-05-06T06:40:12;23.00;99.90
11615;DHT22;5863;52.832;4.758;2023-05-06T06:42:39;23.10;99.90
11615;DHT22;5863;52.832;4.758;2023-05-06T06:45:12;23.30;99.90
11615;DHT22;5863;52.832;4.758;2023-05-06T06:47:41;23.60;99.90
11615;DHT22;5863;52.832;4.758;2023-05-06T06:50:08;23.90;99.90
11615;DHT22;5863;52.832;4.758;2023-05-06T06:52:35;24.00;99.90
11615;DHT22;5863;52.832;4.758;2023-05-06T06:55:02;24.10;99.90
11615;DHT22;5863;52.832;4.758;2023-05-06T06:57:29;24.40;99.90
11615;DHT22;5863;52.832;4.758;2023-05-06T06:59:56;24.60;99.90
11615;DHT22;5863;52.832;4.758;2023-05-06T07:02:22;24.70;99.90
11615;DHT22;5863;52.832;4.758;2023-05-06T07:04:52;24.90;99.90
11615;DHT22;5863;52.832;4.758;2023-05-06T07:07:19;25.10;99.70
11615;DHT22;5863;52.832;4.758;2023-05-06T07:09:46;25.30;99.20
11615;DHT22;5863;52.832;4.758;2023-05-06T07:12:12;25.60;98.90
11615;DHT22;5863;52.832;4.758;2023-05-06T07:14:40;25.60;98.70
11615;DHT22;5863;52.832;4.758;2023-05-06T07:17:07;26.00;98.20
11615;DHT22;5863;52.832;4.758;2023-05-06T07:19:33;26.30;97.80
11615;DHT22;5863;52.832;4.758;2023-05-06T07:22:01;26.50;97.60
11615;DHT22;5863;52.832;4.758;2023-05-06T07:24:28;26.70;97.30
11615;DHT22;5863;52.832;4.758;2023-05-06T07:26:55;26.70;96.80
11615;DHT22;5863;52.832;4.758;2023-05-06T07:29:22;27.00;96.40
11615;DHT22;5863;52.832;4.758;2023-05-06T07:31:49;27.10;96.20
11615;DHT22;5863;52.832;4.758;2023-05-06T07:34:15;26.80;96.30
11615;DHT22;5863;52.832;4.758;2023-05-06T07:36:42;26.50;96.40
11615;DHT22;5863;52.832;4.758;2023-05-06T07:39:11;26.10;96.30
11615;DHT22;5863;52.832;4.758;2023-05-06T07:41:38;25.90;96.60
11615;DHT22;5863;52.832;4.758;2023-05-06T07:44:05;25.80;96.60
11615;DHT22;5863;52.832;4.758;2023-05-06T07:46:33;26.00;96.50
11615;DHT22;5863;52.832;4.758;2023-05-06T07:49:00;26.20;96.20
11615;DHT22;5863;52.832;4.758;2023-05-06T07:51:27;26.40;95.90
11615;DHT22;5863;52.832;4.758;2023-05-06T07:53:54;26.40;95.60
11615;DHT22;5863;52.832;4.758;2023-05-06T07:56:22;26.50;95.50
11615;DHT22;5863;52.832;4.758;2023-05-06T07:58:48;26.70;95.20
11615;DHT22;5863;52.832;4.758;2023-05-06T08:01:15;26.60;95.30
11615;DHT22;5863;52.832;4.758;2023-05-06T08:03:42;26.70;95.00
11615;DHT22;5863;52.832;4.758;2023-05-06T08:06:09;26.70;94.60
11615;DHT22;5863;52.832;4.758;2023-05-06T08:08:36;26.70;94.60
11615;DHT22;5863;52.832;4.758;2023-05-06T08:11:02;26.60;94.60
11615;DHT22;5863;52.832;4.758;2023-05-06T08:13:30;26.40;94.60
11615;DHT22;5863;52.832;4.758;2023-05-06T08:15:57;26.20;94.90
11615;DHT22;5863;52.832;4.758;2023-05-06T08:18:26;25.80;95.20
11615;DHT22;5863;52.832;4.758;2023-05-06T08:20:53;25.40;95.80
11615;DHT22;5863;52.832;4.758;2023-05-06T08:23:20;25.10;96.00
11615;DHT22;5863;52.832;4.758;2023-05-06T08:25:47;24.70;96.40
11615;DHT22;5863;52.832;4.758;2023-05-06T08:28:13;24.40;96.90
11615;DHT22;5863;52.832;4.758;2023-05-06T08:30:41;24.10;97.30
11615;DHT22;5863;52.832;4.758;2023-05-06T08:33:10;23.80;97.80
11615;DHT22;5863;52.832;4.758;2023-05-06T08:35:37;23.50;98.20
11615;DHT22;5863;52.832;4.758;2023-05-06T08:38:03;23.30;98.50
11615;DHT22;5863;52.832;4.758;2023-05-06T08:40:30;23.10;98.90
11615;DHT22;5863;52.832;4.758;2023-05-06T08:42:58;23.10;99.30
11615;DHT22;5863;52.832;4.758;2023-05-06T08:45:25;23.00;99.60
11615;DHT22;5863;52.832;4.758;2023-05-06T08:47:53;23.00;99.80
11615;DHT22;5863;52.832;4.758;2023-05-06T08:50:20;22.80;99.90
11615;DHT22;5863;52.832;4.758;2023-05-06T08:52:47;22.80;99.90
11615;DHT22;5863;52.832;4.758;2023-05-06T08:55:14;22.80;99.90
11615;DHT22;5863;52.832;4.758;2023-05-06T08:57:43;22.80;99.90
11615;DHT22;5863;52.832;4.758;2023-05-06T09:00:11;22.70;99.90
11615;DHT22;5863;52.832;4.758;2023-05-06T09:02:39;22.70;99.90
11615;DHT22;5863;52.832;4.758;2023-05-06T09:05:08;22.60;99.90
11615;DHT22;5863;52.832;4.758;2023-05-06T09:07:35;22.40;99.90
11615;DHT22;5863;52.832;4.758;2023-05-06T09:10:05;22.30;99.90
11615;DHT22;5863;52.832;4.758;2023-05-06T09:12:35;22.20;99.90
11615;DHT22;5863;52.832;4.758;2023-05-06T09:15:02;22.20;99.90
11615;DHT22;5863;52.832;4.758;2023-05-06T09:17:30;22.20;99.90
11615;DHT22;5863;52.832;4.758;2023-05-06T09:19:58;22.20;99.90
11615;DHT22;5863;52.832;4.758;2023-05-06T09:22:27;22.20;99.90
11615;DHT22;5863;52.832;4.758;2023-05-06T09:24:56;22.20;99.90
11615;DHT22;5863;52.832;4.758;2023-05-06T09:27:23;22.40;99.90
11615;DHT22;5863;52.832;4.758;2023-05-06T09:30:00;22.30;99.90
11615;DHT22;5863;52.832;4.758;2023-05-06T09:32:28;22.30;99.90
11615;DHT22;5863;52.832;4.758;2023-05-06T09:34:55;22.20;99.90
11615;DHT22;5863;52.832;4.758;2023-05-06T09:37:23;22.10;99.90
11615;DHT22;5863;52.832;4.758;2023-05-06T09:39:53;22.10;99.90
11615;DHT22;5863;52.832;4.758;2023-05-06T09:42:21;22.00;99.90
11615;DHT22;5863;52.832;4.758;2023-05-06T09:44:48;22.00;99.90
11615;DHT22;5863;52.832;4.758;2023-05-06T09:47:16;22.10;99.90
11615;DHT22;5863;52.832;4.758;2023-05-06T09:49:43;22.10;99.90
11615;DHT22;5863;52.832;4.758;2023-05-06T09:52:11;22.30;99.90
11615;DHT22;5863;52.832;4.758;2023-05-06T09:54:38;22.30;99.90
11615;DHT22;5863;52.832;4.758;2023-05-06T09:57:08;22.40;99.90
11615;DHT22;5863;52.832;4.758;2023-05-06T09:59:38;22.40;99.90
11615;DHT22;5863;52.832;4.758;2023-05-06T10:02:06;22.40;99.90
11615;DHT22;5863;52.832;4.758;2023-05-06T10:04:34;22.50;99.90
11615;DHT22;5863;52.832;4.758;2023-05-06T10:07:02;22.60;99.90
11615;DHT22;5863;52.832;4.758;2023-05-06T10:09:29;22.70;99.90
11615;DHT22;5863;52.832;4.758;2023-05-06T10:11:58;22.80;99.90
11615;DHT22;5863;52.832;4.758;2023-05-06T10:14:26;22.80;99.90
11615;DHT22;5863;52.832;4.758;2023-05-06T10:16:53;22.90;99.90
11615;DHT22;5863;52.832;4.758;2023-05-06T10:19:22;23.10;99.90
11615;DHT22;5863;52.832;4.758;2023-05-06T10:21:53;23.10;99.90
11615;DHT22;5863;52.832;4.758;2023-05-06T10:24:30;23.20;99.90
11615;DHT22;5863;52.832;4.758;2023-05-06T10:27:00;23.20;99.90
11615;DHT22;5863;52.832;4.758;2023-05-06T10:29:31;23.30;99.90
11615;DHT22;5863;52.832;4.758;2023-05-06T10:32:00;23.40;99.90
11615;DHT22;5863;52.832;4.758;2023-05-06T10:34:33;23.50;99.90
11615;DHT22;5863;52.832;4.758;2023-05-06T10:37:03;23.40;99.90
11615;DHT22;5863;52.832;4.758;2023-05-06T10:39:31;23.40;99.90
11615;DHT22;5863;52.832;4.758;2023-05-06T10:41:58;23.40;99.90
11615;DHT22;5863;52.832;4.758;2023-05-06T10:44:59;23.40;99.90
11615;DHT22;5863;52.832;4.758;2023-05-06T10:47:27;23.40;99.90
11615;DHT22;5863;52.832;4.758;2023-05-06T10:50:19;23.40;99.80
11615;DHT22;5863;52.832;4.758;2023-05-06T10:52:49;23.40;99.40
11615;DHT22;5863;52.832;4.758;2023-05-06T10:55:26;23.30;99.30
11615;DHT22;5863;52.832;4.758;2023-05-06T10:57:54;23.20;99.60
11615;DHT22;5863;52.832;4.758;2023-05-06T11:00:23;23.20;99.80
11615;DHT22;5863;52.832;4.758;2023-05-06T11:03:06;23.20;98.70
11615;DHT22;5863;52.832;4.758;2023-05-06T11:05:45;23.00;98.50
11615;DHT22;5863;52.832;4.758;2023-05-06T11:08:14;22.80;98.90
11615;DHT22;5863;52.832;4.758;2023-05-06T11:10:41;22.60;99.70
11615;DHT22;5863;52.832;4.758;2023-05-06T11:13:19;22.70;99.50
11615;DHT22;5863;52.832;4.758;2023-05-06T11:15:48;22.60;99.00
11615;DHT22;5863;52.832;4.758;2023-05-06T11:18:41;22.60;99.50
11615;DHT22;5863;52.832;4.758;2023-05-06T11:21:36;22.60;98.80
11615;DHT22;5863;52.832;4.758;2023-05-06T11:24:09;22.60;98.50
11615;DHT22;5863;52.832;4.758;2023-05-06T11:26:36;22.50;98.90
11615;DHT22;5863;52.832;4.758;2023-05-06T11:29:03;22.50;99.50
11615;DHT22;5863;52.832;4.758;2023-05-06T11:31:38;22.60;99.90
11615;DHT22;5863;52.832;4.758;2023-05-06T11:34:07;22.60;99.80
11615;DHT22;5863;52.832;4.758;2023-05-06T11:36:34;22.60;99.50
11615;DHT22;5863;52.832;4.758;2023-05-06T11:39:05;22.60;98.70
11615;DHT22;5863;52.832;4.758;2023-05-06T11:41:32;22.40;98.70
11615;DHT22;5863;52.832;4.758;2023-05-06T11:43:59;22.60;99.10
11615;DHT22;5863;52.832;4.758;2023-05-06T11:46:30;22.60;98.70
11615;DHT22;5863;52.832;4.758;2023-05-06T11:48:58;22.50;98.00
11615;DHT22;5863;52.832;4.758;2023-05-06T11:51:25;22.30;97.90
11615;DHT22;5863;52.832;4.758;2023-05-06T11:54:07;22.30;98.20
11615;DHT22;5863;52.832;4.758;2023-05-06T11:56:47;22.20;98.30
11615;DHT22;5863;52.832;4.758;2023-05-06T11:59:15;22.20;99.00
11615;DHT22;5863;52.832;4.758;2023-05-06T12:01:43;22.30;99.40
11615;DHT22;5863;52.832;4.758;2023-05-06T12:04:12;22.20;98.00
11615;DHT22;5863;52.832;4.758;2023-05-06T12:06:38;22.10;98.70
11615;DHT22;5863;52.832;4.758;2023-05-06T12:09:08;22.10;98.20
11615;DHT22;5863;52.832;4.758;2023-05-06T12:11:35;21.90;98.30
11615;DHT22;5863;52.832;4.758;2023-05-06T12:14:04;21.90;99.00
11615;DHT22;5863;52.832;4.758;2023-05-06T12:16:32;21.90;98.90
11615;DHT22;5863;52.832;4.758;2023-05-06T12:18:59;21.80;98.80
11615;DHT22;5863;52.832;4.758;2023-05-06T12:21:28;21.80;98.40
11615;DHT22;5863;52.832;4.758;2023-05-06T12:23:56;21.70;99.00
11615;DHT22;5863;52.832;4.758;2023-05-06T12:26:23;21.80;99.20
11615;DHT22;5863;52.832;4.758;2023-05-06T12:29:06;21.80;98.60
11615;DHT22;5863;52.832;4.758;2023-05-06T12:31:33;21.90;99.30
11615;DHT22;5863;52.832;4.758;2023-05-06T12:34:00;22.10;99.80
11615;DHT22;5863;52.832;4.758;2023-05-06T12:36:28;22.20;99.70
11615;DHT22;5863;52.832;4.758;2023-05-06T12:38:57;22.40;99.30
11615;DHT22;5863;52.832;4.758;2023-05-06T12:41:34;22.50;96.90
11615;DHT22;5863;52.832;4.758;2023-05-06T12:44:01;22.40;95.60
11615;DHT22;5863;52.832;4.758;2023-05-06T12:46:28;22.20;95.90
11615;DHT22;5863;52.832;4.758;2023-05-06T12:48:56;22.10;95.40
11615;DHT22;5863;52.832;4.758;2023-05-06T12:51:23;21.90;96.10
11615;DHT22;5863;52.832;4.758;2023-05-06T12:53:52;21.90;97.30
11615;DHT22;5863;52.832;4.758;2023-05-06T12:56:19;22.10;97.60
11615;DHT22;5863;52.832;4.758;2023-05-06T12:58:57;22.20;97.20
11615;DHT22;5863;52.832;4.758;2023-05-06T13:01:23;22.30;98.00
11615;DHT22;5863;52.832;4.758;2023-05-06T13:03:50;22.40;98.40
11615;DHT22;5863;52.832;4.758;2023-05-06T13:06:17;22.50;97.70
11615;DHT22;5863;52.832;4.758;2023-05-06T13:08:44;22.50;97.50
11615;DHT22;5863;52.832;4.758;2023-05-06T13:11:12;22.60;97.40
11615;DHT22;5863;52.832;4.758;2023-05-06T13:13:39;22.60;97.20
11615;DHT22;5863;52.832;4.758;2023-05-06T13:16:07;22.70;97.10
11615;DHT22;5863;52.832;4.758;2023-05-06T13:18:34;22.80;96.40
11615;DHT22;5863;52.832;4.758;2023-05-06T13:21:01;22.80;96.80
11615;DHT22;5863;52.832;4.758;2023-05-06T13:23:28;22.90;98.70
11615;DHT22;5863;52.832;4.758;2023-05-06T13:25:55;22.90;98.80
11615;DHT22;5863;52.832;4.758;2023-05-06T13:28:25;22.60;98.60
11615;DHT22;5863;52.832;4.758;2023-05-06T13:30:52;22.50;99.50
11615;DHT22;5863;52.832;4.758;2023-05-06T13:33:18;22.40;99.60
11615;DHT22;5863;52.832;4.758;2023-05-06T13:35:46;22.30;99.60
11615;DHT22;5863;52.832;4.758;2023-05-06T13:38:12;22.20;99.70
11615;DHT22;5863;52.832;4.758;2023-05-06T13:40:39;22.00;99.80
11615;DHT22;5863;52.832;4.758;2023-05-06T13:43:05;22.00;99.90
11615;DHT22;5863;52.832;4.758;2023-05-06T13:45:34;21.80;99.90
11615;DHT22;5863;52.832;4.758;2023-05-06T13:48:00;21.70;99.90
11615;DHT22;5863;52.832;4.758;2023-05-06T13:50:27;21.50;99.90
11615;DHT22;5863;52.832;4.758;2023-05-06T13:52:53;21.40;99.90
11615;DHT22;5863;52.832;4.758;2023-05-06T13:55:21;21.30;99.90
11615;DHT22;5863;52.832;4.758;2023-05-06T13:57:48;21.10;99.90
11615;DHT22;5863;52.832;4.758;2023-05-06T14:00:15;21.10;99.90
11615;DHT22;5863;52.832;4.758;2023-05-06T14:02:43;21.00;99.90
11615;DHT22;5863;52.832;4.758;2023-05-06T14:05:11;20.90;99.90
11615;DHT22;5863;52.832;4.758;2023-05-06T14:07:39;20.80;99.90
11615;DHT22;5863;52.832;4.758;2023-05-06T14:10:07;20.60;99.90
11615;DHT22;5863;52.832;4.758;2023-05-06T14:12:34;20.60;99.90
11615;DHT22;5863;52.832;4.758;2023-05-06T14:15:01;20.60;99.90
11615;DHT22;5863;52.832;4.758;2023-05-06T14:17:28;20.60;99.90
11615;DHT22;5863;52.832;4.758;2023-05-06T14:19:56;20.50;99.90
11615;DHT22;5863;52.832;4.758;2023-05-06T14:22:23;20.40;99.90
11615;DHT22;5863;52.832;4.758;2023-05-06T14:24:49;20.40;99.90
11615;DHT22;5863;52.832;4.758;2023-05-06T14:27:16;20.50;99.90
11615;DHT22;5863;52.832;4.758;2023-05-06T14:29:43;20.50;99.90
11615;DHT22;5863;52.832;4.758;2023-05-06T14:32:10;20.50;99.90
11615;DHT22;5863;52.832;4.758;2023-05-06T14:34:37;20.50;99.90
11615;DHT22;5863;52.832;4.758;2023-05-06T14:37:05;20.50;99.90
11615;DHT22;5863;52.832;4.758;2023-05-06T14:39:32;20.50;99.90
11615;DHT22;5863;52.832;4.758;2023-05-06T14:41:59;20.60;99.90
11615;DHT22;5863;52.832;4.758;2023-05-06T14:44:25;20.80;99.90
11615;DHT22;5863;52.832;4.758;2023-05-06T14:46:52;20.80;99.90
11615;DHT22;5863;52.832;4.758;2023-05-06T14:49:20;21.00;99.90
11615;DHT22;5863;52.832;4.758;2023-05-06T14:51:47;21.30;99.90
11615;DHT22;5863;52.832;4.758;2023-05-06T14:54:15;21.40;99.90
11615;DHT22;5863;52.832;4.758;2023-05-06T14:56:42;21.60;99.90
11615;DHT22;5863;52.832;4.758;2023-05-06T14:59:10;21.50;99.90
11615;DHT22;5863;52.832;4.758;2023-05-06T15:01:37;21.40;99.90
11615;DHT22;5863;52.832;4.758;2023-05-06T15:04:05;21.40;99.90
11615;DHT22;5863;52.832;4.758;2023-05-06T15:06:33;21.30;99.90
11615;DHT22;5863;52.832;4.758;2023-05-06T15:09:00;21.20;99.90
11615;DHT22;5863;52.832;4.758;2023-05-06T15:11:29;21.10;99.90
11615;DHT22;5863;52.832;4.758;2023-05-06T15:13:56;21.00;99.90
11615;DHT22;5863;52.832;4.758;2023-05-06T15:16:23;20.80;99.90
11615;DHT22;5863;52.832;4.758;2023-05-06T15:18:49;20.90;99.90
11615;DHT22;5863;52.832;4.758;2023-05-06T15:21:16;20.90;99.90
11615;DHT22;5863;52.832;4.758;2023-05-06T15:23:44;20.80;99.90
11615;DHT22;5863;52.832;4.758;2023-05-06T15:26:11;20.90;99.90
11615;DHT22;5863;52.832;4.758;2023-05-06T15:28:40;20.80;99.90
11615;DHT22;5863;52.832;4.758;2023-05-06T15:31:07;20.70;99.90
11615;DHT22;5863;52.832;4.758;2023-05-06T15:33:33;20.60;99.90
11615;DHT22;5863;52.832;4.758;2023-05-06T15:36:07;20.50;99.90
11615;DHT22;5863;52.832;4.758;2023-05-06T15:38:56;20.30;99.90
11615;DHT22;5863;52.832;4.758;2023-05-06T15:41:25;20.20;99.90
11615;DHT22;5863;52.832;4.758;2023-05-06T15:43:53;20.10;99.90
11615;DHT22;5863;52.832;4.758;2023-05-06T15:46:21;20.10;99.90
11615;DHT22;5863;52.832;4.758;2023-05-06T15:48:48;20.00;99.90
11615;DHT22;5863;52.832;4.758;2023-05-06T15:51:15;20.00;99.90